»·PEaware :: SKY620 KPRC-KHII

SKY620 :: KPRC-KHII

FLIGHT INFORMATION

Flight Status: Arrived
Operator:
Sky High Charters
More flights by this operator :: More flights under this callsign
Pilot: Seb M. (28802)
Aircraft: CESSNA 206 STATIONAIR
(C206)
More flights by this aircraft type
Origin: KPRC Love
United States
Destination: KHII Lake Havasu City
United States
More flights between these airports :: More routes between these airports
Route: WNSKI2 MUMTE V12 EED
File this flight plan on PilotEdge
Remarks:
Altitude:
(Current/Filed)
10,000ft
Speed:
(Current/Filed)
150kts
Departed: 06-Aug-23 10:44 AM
Arrived: 06-Aug-23 11:49 AM
Distance/Time
Traveled:
96nm/1:05
Distance/Time
To Go:
Arrived

Flight Plot

Page will automatically refresh every two minutes.

Flight plan parsing failed; only flown route is shown


Map Options




Map Legend


Flown Route
Filed Route
Departure Airport
Arrival Airport
Navaid (VOR, NDB)
Fix

Horizontal Profiles

Position Reports

Time Latitude Longitude Heading Altitude Ground
Speed
06-Aug-23 10:34 34.655223 -112.421339 195 4986ft 0kts
06-Aug-23 10:35 34.655223 -112.421339 195 4986ft 0kts
06-Aug-23 10:36 34.655223 -112.421339 195 4986ft 0kts
06-Aug-23 10:37 34.655223 -112.421339 195 4986ft 0kts
06-Aug-23 10:38 34.655223 -112.421339 195 4986ft 0kts
06-Aug-23 10:39 34.655192 -112.421323 122 4986ft 0kts
06-Aug-23 10:40 34.654990 -112.420254 128 4988ft 0kts
06-Aug-23 10:41 34.654990 -112.420254 128 4988ft 0kts
06-Aug-23 10:42 34.654294 -112.419700 222 4992ft 0kts
06-Aug-23 10:43 34.640393 -112.431970 192 5424ft 96kts
06-Aug-23 10:44 34.633377 -112.400555 55 6595ft 114kts
06-Aug-23 10:45 34.633936 -112.369170 133 7760ft 102kts
06-Aug-23 10:46 34.615692 -112.342956 135 8835ft 102kts
06-Aug-23 10:47 34.596500 -112.317775 137 9828ft 102kts
06-Aug-23 10:48 34.570871 -112.287531 138 10004ft 153kts
06-Aug-23 10:49 34.538719 -112.252822 166 9993ft 155kts
06-Aug-23 10:50 34.508169 -112.285406 236 10000ft 157kts
06-Aug-23 10:51 34.485727 -112.331388 239 9999ft 158kts
06-Aug-23 10:52 34.467040 -112.379902 246 9999ft 159kts
06-Aug-23 10:53 34.453829 -112.431285 254 9999ft 160kts
06-Aug-23 10:54 34.445008 -112.484370 266 9999ft 162kts
06-Aug-23 10:55 34.452268 -112.538365 283 9999ft 164kts
06-Aug-23 10:56 34.470058 -112.589576 292 9999ft 165kts
06-Aug-23 10:57 34.489134 -112.640108 292 9999ft 165kts
06-Aug-23 10:58 34.513296 -112.687454 304 10000ft 166kts
06-Aug-23 10:59 34.548015 -112.724696 320 10000ft 168kts
06-Aug-23 11:00 34.588071 -112.753345 331 10000ft 168kts
06-Aug-23 11:01 34.631786 -112.773887 342 10000ft 169kts
06-Aug-23 11:02 34.678354 -112.782447 359 9999ft 170kts
06-Aug-23 11:03 34.722971 -112.791171 299 9997ft 165kts
06-Aug-23 11:04 34.725666 -112.845144 266 10000ft 162kts
06-Aug-23 11:05 34.725283 -112.900020 266 10000ft 162kts
06-Aug-23 11:06 34.724995 -112.954956 266 10000ft 162kts
06-Aug-23 11:07 34.724804 -113.009809 267 10000ft 162kts
06-Aug-23 11:08 34.725500 -113.064511 266 9990ft 162kts
06-Aug-23 11:09 34.726352 -113.119777 269 9956ft 164kts
06-Aug-23 11:10 34.728131 -113.175240 269 9922ft 165kts
06-Aug-23 11:11 34.730038 -113.231269 269 9888ft 165kts
06-Aug-23 11:12 34.731945 -113.287762 269 9855ft 166kts
06-Aug-23 11:13 34.733826 -113.344299 269 9854ft 165kts
06-Aug-23 11:14 34.735652 -113.399916 269 9854ft 165kts
06-Aug-23 11:15 34.737464 -113.455662 269 9854ft 165kts
06-Aug-23 11:16 34.739245 -113.511354 269 9854ft 165kts
06-Aug-23 11:17 34.741001 -113.567012 269 9854ft 164kts
06-Aug-23 11:18 34.742733 -113.622697 269 9854ft 165kts
06-Aug-23 11:19 34.744413 -113.677277 268 10103ft 152kts
06-Aug-23 11:21 34.745964 -113.729709 268 10184ft 160kts
06-Aug-23 11:22 34.747612 -113.784747 268 10173ft 164kts
06-Aug-23 11:23 34.749317 -113.840639 269 10138ft 166kts
06-Aug-23 11:24 34.750988 -113.896860 268 10100ft 167kts
06-Aug-23 11:25 34.752574 -113.953318 269 10065ft 167kts
06-Aug-23 11:26 34.754150 -114.009933 269 10032ft 167kts
06-Aug-23 11:27 34.755680 -114.066277 269 10023ft 166kts
06-Aug-23 11:28 34.757190 -114.122589 269 10014ft 166kts
06-Aug-23 11:29 34.758704 -114.179070 269 10004ft 166kts
06-Aug-23 11:30 34.760165 -114.235374 269 9994ft 167kts
06-Aug-23 11:31 34.761615 -114.292926 269 9666ft 183kts
06-Aug-23 11:32 34.763258 -114.358022 269 8680ft 197kts
06-Aug-23 11:33 34.764810 -114.420470 268 7667ft 170kts
06-Aug-23 11:34 34.766611 -114.475921 284 6993ft 151kts
06-Aug-23 11:35 34.800613 -114.496102 340 6994ft 129kts
06-Aug-23 11:36 34.832520 -114.509751 337 6995ft 115kts
06-Aug-23 11:37 34.863148 -114.522843 351 6998ft 119kts
06-Aug-23 11:38 34.870049 -114.499753 153 7003ft 96kts
06-Aug-23 11:39 34.844712 -114.488662 175 6999ft 97kts
06-Aug-23 11:40 34.812797 -114.486455 176 6451ft 134kts
06-Aug-23 11:41 34.772686 -114.483773 177 5566ft 151kts
06-Aug-23 11:41 34.738942 -114.481605 178 4836ft 142kts
06-Aug-23 11:43 34.698110 -114.458765 149 3862ft 140kts
06-Aug-23 11:44 34.665612 -114.432786 149 3030ft 134kts
06-Aug-23 11:45 34.638777 -114.411369 147 2293ft 104kts
06-Aug-23 11:46 34.615345 -114.392681 148 1701ft 99kts
06-Aug-23 11:47 34.594924 -114.376398 145 1146ft 75kts
06-Aug-23 11:48 34.579204 -114.364179 146 768ft 57kts
06-Aug-23 11:48 34.573996 -114.361333 155 760ft 0kts
06-Aug-23 11:49 34.573996 -114.361333 155 760ft 0kts
06-Aug-23 11:50 34.573996 -114.361333 155 760ft 0kts
06-Aug-23 11:52 34.573996 -114.361333 155 760ft 0kts
06-Aug-23 11:52 34.573996 -114.361333 155 760ft 0kts

Navigation Log

Ident Type
Flight plan parsing failed, navigation log unavailable